sensor_id;sensor_type;location;lat;lon;timestamp;P1;durP1;ratioP1;P2;durP2;ratioP2
38037;SDS011;23843;51.320;12.340;2022-11-30T05:32:37;6.13;;;4.10;;
38037;SDS011;23843;51.320;12.340;2022-11-30T05:35:02;5.87;;;4.17;;
38037;SDS011;23843;51.320;12.340;2022-11-30T05:37:28;6.93;;;4.40;;
38037;SDS011;23843;51.320;12.340;2022-11-30T05:39:54;11.57;;;7.00;;
38037;SDS011;23843;51.320;12.340;2022-11-30T05:42:19;10.23;;;6.33;;
38037;SDS011;23843;51.320;12.340;2022-11-30T05:44:44;8.47;;;5.87;;
38037;SDS011;23843;51.320;12.340;2022-11-30T05:47:10;10.27;;;5.73;;
38037;SDS011;23843;51.320;12.340;2022-11-30T05:49:37;8.03;;;5.43;;
38037;SDS011;23843;51.320;12.340;2022-11-30T05:52:02;10.57;;;6.97;;
38037;SDS011;23843;51.320;12.340;2022-11-30T05:54:28;10.20;;;7.27;;
38037;SDS011;23843;51.320;12.340;2022-11-30T05:56:53;10.57;;;7.00;;
38037;SDS011;23843;51.320;12.340;2022-11-30T05:59:18;6.83;;;4.90;;
38037;SDS011;23843;51.320;12.340;2022-11-30T06:01:44;7.37;;;5.20;;
38037;SDS011;23843;51.320;12.340;2022-11-30T06:04:09;8.53;;;5.60;;
38037;SDS011;23843;51.320;12.340;2022-11-30T06:06:36;11.07;;;7.33;;
38037;SDS011;23843;51.320;12.340;2022-11-30T06:09:01;10.17;;;6.20;;
38037;SDS011;23843;51.320;12.340;2022-11-30T06:11:27;5.50;;;3.73;;
38037;SDS011;23843;51.320;12.340;2022-11-30T06:13:52;5.10;;;3.80;;
38037;SDS011;23843;51.320;12.340;2022-11-30T06:16:18;5.13;;;3.63;;
38037;SDS011;23843;51.320;12.340;2022-11-30T06:18:43;5.70;;;4.20;;
38037;SDS011;23843;51.320;12.340;2022-11-30T06:21:10;5.10;;;3.43;;
38037;SDS011;23843;51.320;12.340;2022-11-30T06:23:37;6.97;;;4.67;;
38037;SDS011;23843;51.320;12.340;2022-11-30T06:26:03;7.67;;;5.10;;
38037;SDS011;23843;51.320;12.340;2022-11-30T06:28:29;5.03;;;3.70;;
38037;SDS011;23843;51.320;12.340;2022-11-30T06:30:56;6.87;;;4.37;;
38037;SDS011;23843;51.320;12.340;2022-11-30T06:33:22;5.60;;;3.87;;
38037;SDS011;23843;51.320;12.340;2022-11-30T06:35:48;3.67;;;2.80;;
38037;SDS011;23843;51.320;12.340;2022-11-30T06:38:13;3.53;;;2.47;;
38037;SDS011;23843;51.320;12.340;2022-11-30T06:40:40;4.57;;;2.93;;
38037;SDS011;23843;51.320;12.340;2022-11-30T06:43:05;9.77;;;6.13;;
38037;SDS011;23843;51.320;12.340;2022-11-30T06:45:31;14.20;;;9.07;;
38037;SDS011;23843;51.320;12.340;2022-11-30T06:47:56;10.73;;;6.50;;
38037;SDS011;23843;51.320;12.340;2022-11-30T06:50:21;9.90;;;6.80;;
38037;SDS011;23843;51.320;12.340;2022-11-30T06:52:47;15.23;;;9.90;;
38037;SDS011;23843;51.320;12.340;2022-11-30T06:55:13;16.57;;;9.57;;
38037;SDS011;23843;51.320;12.340;2022-11-30T06:57:40;11.43;;;7.90;;
38037;SDS011;23843;51.320;12.340;2022-11-30T07:00:06;10.17;;;7.17;;
38037;SDS011;23843;51.320;12.340;2022-11-30T07:02:32;15.67;;;8.53;;
38037;SDS011;23843;51.320;12.340;2022-11-30T07:04:58;13.60;;;9.20;;
38037;SDS011;23843;51.320;12.340;2022-11-30T07:07:23;11.80;;;7.50;;
38037;SDS011;23843;51.320;12.340;2022-11-30T07:09:49;14.80;;;9.83;;
38037;SDS011;23843;51.320;12.340;2022-11-30T07:12:15;11.87;;;7.87;;
38037;SDS011;23843;51.320;12.340;2022-11-30T07:14:42;13.53;;;8.90;;
38037;SDS011;23843;51.320;12.340;2022-11-30T07:17:07;20.23;;;12.23;;
38037;SDS011;23843;51.320;12.340;2022-11-30T07:19:32;25.90;;;15.67;;
38037;SDS011;23843;51.320;12.340;2022-11-30T07:21:58;19.93;;;12.23;;
38037;SDS011;23843;51.320;12.340;2022-11-30T07:24:23;23.03;;;13.63;;
38037;SDS011;23843;51.320;12.340;2022-11-30T07:26:49;21.80;;;12.80;;
38037;SDS011;23843;51.320;12.340;2022-11-30T07:29:14;18.83;;;11.20;;
38037;SDS011;23843;51.320;12.340;2022-11-30T07:31:41;17.03;;;10.73;;
38037;SDS011;23843;51.320;12.340;2022-11-30T07:34:07;16.63;;;10.37;;
38037;SDS011;23843;51.320;12.340;2022-11-30T07:36:34;17.13;;;11.13;;
38037;SDS011;23843;51.320;12.340;2022-11-30T07:39:00;18.07;;;11.70;;
38037;SDS011;23843;51.320;12.340;2022-11-30T07:41:25;45.00;;;25.90;;
38037;SDS011;23843;51.320;12.340;2022-11-30T07:43:51;34.33;;;20.93;;
38037;SDS011;23843;51.320;12.340;2022-11-30T07:46:17;42.47;;;24.50;;
38037;SDS011;23843;51.320;12.340;2022-11-30T07:48:46;49.13;;;28.67;;
38037;SDS011;23843;51.320;12.340;2022-11-30T07:51:12;37.37;;;22.53;;
38037;SDS011;23843;51.320;12.340;2022-11-30T07:53:39;31.77;;;19.70;;
38037;SDS011;23843;51.320;12.340;2022-11-30T07:56:05;34.57;;;20.63;;
38037;SDS011;23843;51.320;12.340;2022-11-30T07:58:32;25.10;;;15.97;;
38037;SDS011;23843;51.320;12.340;2022-11-30T08:01:01;26.00;;;15.13;;
38037;SDS011;23843;51.320;12.340;2022-11-30T08:03:28;28.10;;;17.83;;
38037;SDS011;23843;51.320;12.340;2022-11-30T08:05:59;26.37;;;16.53;;
38037;SDS011;23843;51.320;12.340;2022-11-30T08:08:27;25.37;;;14.87;;
38037;SDS011;23843;51.320;12.340;2022-11-30T08:10:55;33.43;;;19.10;;
38037;SDS011;23843;51.320;12.340;2022-11-30T08:13:20;29.97;;;17.03;;
38037;SDS011;23843;51.320;12.340;2022-11-30T08:15:46;22.07;;;13.17;;
38037;SDS011;23843;51.320;12.340;2022-11-30T08:18:11;28.90;;;15.97;;
38037;SDS011;23843;51.320;12.340;2022-11-30T08:20:36;34.20;;;19.37;;
38037;SDS011;23843;51.320;12.340;2022-11-30T08:23:03;32.10;;;17.33;;
38037;SDS011;23843;51.320;12.340;2022-11-30T08:25:29;31.43;;;17.43;;
38037;SDS011;23843;51.320;12.340;2022-11-30T08:27:54;30.93;;;18.30;;
38037;SDS011;23843;51.320;12.340;2022-11-30T08:30:19;27.53;;;15.83;;
38037;SDS011;23843;51.320;12.340;2022-11-30T08:32:45;28.80;;;16.97;;
38037;SDS011;23843;51.320;12.340;2022-11-30T08:35:10;30.03;;;16.43;;
38037;SDS011;23843;51.320;12.340;2022-11-30T08:37:36;29.97;;;17.33;;
38037;SDS011;23843;51.320;12.340;2022-11-30T08:40:03;36.43;;;19.60;;
38037;SDS011;23843;51.320;12.340;2022-11-30T08:42:29;32.67;;;18.30;;
38037;SDS011;23843;51.320;12.340;2022-11-30T08:44:54;28.47;;;16.57;;
38037;SDS011;23843;51.320;12.340;2022-11-30T08:47:20;24.50;;;14.23;;
38037;SDS011;23843;51.320;12.340;2022-11-30T08:49:45;25.37;;;14.87;;
38037;SDS011;23843;51.320;12.340;2022-11-30T08:52:11;29.40;;;16.97;;
38037;SDS011;23843;51.320;12.340;2022-11-30T08:54:36;35.70;;;19.37;;
38037;SDS011;23843;51.320;12.340;2022-11-30T08:57:03;32.07;;;18.43;;
38037;SDS011;23843;51.320;12.340;2022-11-30T08:59:29;28.83;;;16.00;;
38037;SDS011;23843;51.320;12.340;2022-11-30T09:01:55;28.70;;;15.13;;
38037;SDS011;23843;51.320;12.340;2022-11-30T09:04:20;30.97;;;16.20;;
38037;SDS011;23843;51.320;12.340;2022-11-30T09:06:46;23.00;;;13.50;;
38037;SDS011;23843;51.320;12.340;2022-11-30T09:09:11;30.10;;;15.43;;
38037;SDS011;23843;51.320;12.340;2022-11-30T09:11:36;29.40;;;16.97;;
38037;SDS011;23843;51.320;12.340;2022-11-30T09:14:03;25.73;;;14.77;;
38037;SDS011;23843;51.320;12.340;2022-11-30T09:16:29;39.17;;;21.30;;
38037;SDS011;23843;51.320;12.340;2022-11-30T09:18:55;38.40;;;20.83;;
38037;SDS011;23843;51.320;12.340;2022-11-30T09:21:21;41.97;;;22.70;;
38037;SDS011;23843;51.320;12.340;2022-11-30T09:23:48;30.67;;;17.17;;
38037;SDS011;23843;51.320;12.340;2022-11-30T09:26:15;18.13;;;10.77;;
38037;SDS011;23843;51.320;12.340;2022-11-30T09:28:41;28.57;;;16.07;;
38037;SDS011;23843;51.320;12.340;2022-11-30T09:31:09;35.40;;;20.73;;
38037;SDS011;23843;51.320;12.340;2022-11-30T09:33:36;34.07;;;19.20;;
38037;SDS011;23843;51.320;12.340;2022-11-30T09:36:03;30.97;;;18.43;;
38037;SDS011;23843;51.320;12.340;2022-11-30T09:38:30;20.77;;;12.83;;
38037;SDS011;23843;51.320;12.340;2022-11-30T09:40:56;28.90;;;16.07;;
38037;SDS011;23843;51.320;12.340;2022-11-30T09:43:26;35.53;;;19.13;;
38037;SDS011;23843;51.320;12.340;2022-11-30T09:46:01;38.50;;;21.93;;
38037;SDS011;23843;51.320;12.340;2022-11-30T09:48:35;35.43;;;20.60;;
38037;SDS011;23843;51.320;12.340;2022-11-30T09:51:17;38.53;;;21.30;;
38037;SDS011;23843;51.320;12.340;2022-11-30T09:53:46;38.23;;;20.90;;
38037;SDS011;23843;51.320;12.340;2022-11-30T09:56:29;33.40;;;19.50;;
38037;SDS011;23843;51.320;12.340;2022-11-30T09:59:00;35.47;;;20.10;;
38037;SDS011;23843;51.320;12.340;2022-11-30T10:01:28;28.10;;;15.60;;
38037;SDS011;23843;51.320;12.340;2022-11-30T10:03:55;32.57;;;19.63;;
38037;SDS011;23843;51.320;12.340;2022-11-30T10:06:22;32.83;;;19.73;;
38037;SDS011;23843;51.320;12.340;2022-11-30T10:08:59;34.83;;;19.93;;
38037;SDS011;23843;51.320;12.340;2022-11-30T10:11:34;38.13;;;22.40;;
38037;SDS011;23843;51.320;12.340;2022-11-30T10:17:15;25.63;;;14.80;;
38037;SDS011;23843;51.320;12.340;2022-11-30T10:19:55;27.80;;;15.67;;
38037;SDS011;23843;51.320;12.340;2022-11-30T10:22:52;24.47;;;13.77;;
38037;SDS011;23843;51.320;12.340;2022-11-30T10:25:32;28.60;;;16.23;;
38037;SDS011;23843;51.320;12.340;2022-11-30T10:28:06;25.57;;;14.87;;
38037;SDS011;23843;51.320;12.340;2022-11-30T10:30:40;24.10;;;14.33;;
38037;SDS011;23843;51.320;12.340;2022-11-30T10:33:09;32.50;;;17.80;;
38037;SDS011;23843;51.320;12.340;2022-11-30T10:35:42;24.13;;;13.57;;
38037;SDS011;23843;51.320;12.340;2022-11-30T10:38:12;21.97;;;13.03;;
38037;SDS011;23843;51.320;12.340;2022-11-30T10:40:43;27.40;;;16.03;;
38037;SDS011;23843;51.320;12.340;2022-11-30T10:43:14;28.00;;;16.03;;
38037;SDS011;23843;51.320;12.340;2022-11-30T10:45:43;26.47;;;15.70;;
38037;SDS011;23843;51.320;12.340;2022-11-30T10:48:13;31.03;;;16.60;;
38037;SDS011;23843;51.320;12.340;2022-11-30T10:50:43;26.80;;;16.10;;
38037;SDS011;23843;51.320;12.340;2022-11-30T10:53:09;24.90;;;14.03;;
38037;SDS011;23843;51.320;12.340;2022-11-30T10:55:38;28.90;;;16.70;;
38037;SDS011;23843;51.320;12.340;2022-11-30T10:58:06;23.67;;;13.43;;
38037;SDS011;23843;51.320;12.340;2022-11-30T11:00:36;32.83;;;18.20;;
38037;SDS011;23843;51.320;12.340;2022-11-30T11:03:02;28.37;;;17.23;;
38037;SDS011;23843;51.320;12.340;2022-11-30T11:05:47;28.40;;;16.13;;
38037;SDS011;23843;51.320;12.340;2022-11-30T11:08:27;23.17;;;13.43;;
38037;SDS011;23843;51.320;12.340;2022-11-30T11:10:52;28.73;;;16.43;;
38037;SDS011;23843;51.320;12.340;2022-11-30T11:13:20;31.83;;;17.73;;
38037;SDS011;23843;51.320;12.340;2022-11-30T11:16:00;29.67;;;17.30;;
38037;SDS011;23843;51.320;12.340;2022-11-30T11:18:27;26.20;;;15.43;;
38037;SDS011;23843;51.320;12.340;2022-11-30T11:21:02;29.30;;;16.83;;
38037;SDS011;23843;51.320;12.340;2022-11-30T11:23:30;22.03;;;13.53;;
38037;SDS011;23843;51.320;12.340;2022-11-30T11:25:57;25.87;;;15.07;;
38037;SDS011;23843;51.320;12.340;2022-11-30T11:28:23;21.80;;;13.10;;
38037;SDS011;23843;51.320;12.340;2022-11-30T11:30:50;19.63;;;11.47;;
38037;SDS011;23843;51.320;12.340;2022-11-30T11:33:17;20.00;;;11.20;;
38037;SDS011;23843;51.320;12.340;2022-11-30T11:35:45;15.70;;;10.20;;
38037;SDS011;23843;51.320;12.340;2022-11-30T11:38:21;10.43;;;6.73;;
38037;SDS011;23843;51.320;12.340;2022-11-30T11:40:56;10.97;;;7.20;;
38037;SDS011;23843;51.320;12.340;2022-11-30T11:43:24;13.17;;;7.60;;
38037;SDS011;23843;51.320;12.340;2022-11-30T11:45:52;10.53;;;6.40;;
38037;SDS011;23843;51.320;12.340;2022-11-30T11:48:27;21.60;;;12.30;;
38037;SDS011;23843;51.320;12.340;2022-11-30T11:50:56;23.47;;;14.40;;
38037;SDS011;23843;51.320;12.340;2022-11-30T11:53:32;26.50;;;15.67;;
38037;SDS011;23843;51.320;12.340;2022-11-30T11:56:11;33.63;;;19.63;;
38037;SDS011;23843;51.320;12.340;2022-11-30T11:58:42;28.83;;;16.77;;
38037;SDS011;23843;51.320;12.340;2022-11-30T12:01:14;22.70;;;13.83;;
38037;SDS011;23843;51.320;12.340;2022-11-30T12:03:50;26.83;;;15.57;;
38037;SDS011;23843;51.320;12.340;2022-11-30T12:06:24;28.50;;;17.73;;
38037;SDS011;23843;51.320;12.340;2022-11-30T12:08:53;29.67;;;16.70;;
38037;SDS011;23843;51.320;12.340;2022-11-30T12:11:24;29.43;;;18.00;;
38037;SDS011;23843;51.320;12.340;2022-11-30T12:13:55;33.53;;;19.67;;
38037;SDS011;23843;51.320;12.340;2022-11-30T12:16:27;30.70;;;16.63;;
38037;SDS011;23843;51.320;12.340;2022-11-30T12:18:59;36.20;;;21.10;;
38037;SDS011;23843;51.320;12.340;2022-11-30T12:21:34;30.13;;;17.30;;
38037;SDS011;23843;51.320;12.340;2022-11-30T12:27:02;25.53;;;14.67;;
38037;SDS011;23843;51.320;12.340;2022-11-30T12:29:42;29.20;;;16.50;;
38037;SDS011;23843;51.320;12.340;2022-11-30T12:32:18;22.87;;;14.43;;
38037;SDS011;23843;51.320;12.340;2022-11-30T12:34:55;19.60;;;11.63;;
38037;SDS011;23843;51.320;12.340;2022-11-30T12:37:35;13.47;;;8.43;;
38037;SDS011;23843;51.320;12.340;2022-11-30T12:40:12;16.77;;;10.83;;
38037;SDS011;23843;51.320;12.340;2022-11-30T12:42:51;22.20;;;13.83;;
38037;SDS011;23843;51.320;12.340;2022-11-30T12:45:27;20.47;;;12.40;;
38037;SDS011;23843;51.320;12.340;2022-11-30T12:47:59;25.77;;;15.10;;
38037;SDS011;23843;51.320;12.340;2022-11-30T12:50:41;20.13;;;13.00;;
38037;SDS011;23843;51.320;12.340;2022-11-30T12:53:17;25.43;;;15.13;;
38037;SDS011;23843;51.320;12.340;2022-11-30T12:55:52;30.77;;;19.10;;
38037;SDS011;23843;51.320;12.340;2022-11-30T12:58:29;39.00;;;21.70;;
38037;SDS011;23843;51.320;12.340;2022-11-30T13:01:06;31.93;;;18.67;;
38037;SDS011;23843;51.320;12.340;2022-11-30T13:03:42;25.87;;;16.43;;
38037;SDS011;23843;51.320;12.340;2022-11-30T13:06:13;28.97;;;17.20;;
38037;SDS011;23843;51.320;12.340;2022-11-30T13:08:43;29.13;;;16.60;;
38037;SDS011;23843;51.320;12.340;2022-11-30T13:11:16;25.47;;;15.97;;
38037;SDS011;23843;51.320;12.340;2022-11-30T13:13:46;23.27;;;14.37;;
38037;SDS011;23843;51.320;12.340;2022-11-30T13:16:15;24.43;;;14.30;;
38037;SDS011;23843;51.320;12.340;2022-11-30T13:18:42;29.47;;;16.43;;
38037;SDS011;23843;51.320;12.340;2022-11-30T13:21:08;28.03;;;16.83;;
38037;SDS011;23843;51.320;12.340;2022-11-30T13:23:45;26.23;;;15.47;;
38037;SDS011;23843;51.320;12.340;2022-11-30T13:26:21;23.90;;;14.43;;
38037;SDS011;23843;51.320;12.340;2022-11-30T13:28:57;27.00;;;16.23;;
38037;SDS011;23843;51.320;12.340;2022-11-30T13:31:32;23.83;;;14.57;;
38037;SDS011;23843;51.320;12.340;2022-11-30T13:34:02;31.57;;;18.30;;
38037;SDS011;23843;51.320;12.340;2022-11-30T13:36:37;31.37;;;17.00;;
38037;SDS011;23843;51.320;12.340;2022-11-30T13:45:01;22.53;;;14.07;;
38037;SDS011;23843;51.320;12.340;2022-11-30T13:47:42;35.53;;;21.60;;
38037;SDS011;23843;51.320;12.340;2022-11-30T13:50:14;30.93;;;18.17;;
38037;SDS011;23843;51.320;12.340;2022-11-30T13:53:05;28.57;;;16.63;;
38037;SDS011;23843;51.320;12.340;2022-11-30T13:55:42;30.50;;;19.43;;
38037;SDS011;23843;51.320;12.340;2022-11-30T13:58:16;28.80;;;17.10;;
38037;SDS011;23843;51.320;12.340;2022-11-30T14:00:43;27.13;;;16.60;;
38037;SDS011;23843;51.320;12.340;2022-11-30T14:03:25;28.90;;;16.40;;
38037;SDS011;23843;51.320;12.340;2022-11-30T14:05:51;28.17;;;17.67;;
38037;SDS011;23843;51.320;12.340;2022-11-30T14:17:09;31.73;;;19.93;;
38037;SDS011;23843;51.320;12.340;2022-11-30T14:19:40;32.60;;;18.97;;
38037;SDS011;23843;51.320;12.340;2022-11-30T14:22:08;38.00;;;22.57;;
38037;SDS011;23843;51.320;12.340;2022-11-30T14:24:35;32.87;;;19.60;;
38037;SDS011;23843;51.320;12.340;2022-11-30T14:27:01;23.80;;;15.10;;
38037;SDS011;23843;51.320;12.340;2022-11-30T14:29:28;23.87;;;15.70;;
38037;SDS011;23843;51.320;12.340;2022-11-30T14:32:00;19.17;;;13.30;;
38037;SDS011;23843;51.320;12.340;2022-11-30T14:34:34;27.03;;;17.37;;
38037;SDS011;23843;51.320;12.340;2022-11-30T14:37:02;29.37;;;17.47;;
38037;SDS011;23843;51.320;12.340;2022-11-30T14:39:31;29.30;;;18.27;;
38037;SDS011;23843;51.320;12.340;2022-11-30T14:41:58;31.50;;;19.13;;
38037;SDS011;23843;51.320;12.340;2022-11-30T14:44:24;29.53;;;18.53;;
38037;SDS011;23843;51.320;12.340;2022-11-30T14:46:49;30.47;;;19.97;;
38037;SDS011;23843;51.320;12.340;2022-11-30T14:49:17;27.20;;;18.10;;
38037;SDS011;23843;51.320;12.340;2022-11-30T14:51:44;23.83;;;15.37;;
38037;SDS011;23843;51.320;12.340;2022-11-30T14:54:15;32.63;;;20.60;;
38037;SDS011;23843;51.320;12.340;2022-11-30T14:56:56;25.27;;;16.87;;
38037;SDS011;23843;51.320;12.340;2022-11-30T14:59:34;32.60;;;19.87;;
38037;SDS011;23843;51.320;12.340;2022-11-30T15:02:11;32.77;;;19.77;;
38037;SDS011;23843;51.320;12.340;2022-11-30T15:04:44;35.60;;;20.90;;
38037;SDS011;23843;51.320;12.340;2022-11-30T15:07:11;36.13;;;21.20;;
38037;SDS011;23843;51.320;12.340;2022-11-30T15:09:38;27.87;;;17.57;;
38037;SDS011;23843;51.320;12.340;2022-11-30T15:12:07;26.37;;;16.93;;
38037;SDS011;23843;51.320;12.340;2022-11-30T15:14:33;26.67;;;16.10;;
38037;SDS011;23843;51.320;12.340;2022-11-30T15:16:58;29.00;;;17.93;;
38037;SDS011;23843;51.320;12.340;2022-11-30T15:19:24;23.17;;;14.67;;
38037;SDS011;23843;51.320;12.340;2022-11-30T15:21:53;20.53;;;13.10;;
38037;SDS011;23843;51.320;12.340;2022-11-30T15:24:20;18.10;;;11.23;;
38037;SDS011;23843;51.320;12.340;2022-11-30T15:26:50;25.60;;;16.10;;
38037;SDS011;23843;51.320;12.340;2022-11-30T15:29:20;28.93;;;18.03;;
38037;SDS011;23843;51.320;12.340;2022-11-30T15:31:51;35.43;;;20.13;;
38037;SDS011;23843;51.320;12.340;2022-11-30T15:34:18;30.97;;;19.30;;
38037;SDS011;23843;51.320;12.340;2022-11-30T15:36:52;32.37;;;20.40;;
38037;SDS011;23843;51.320;12.340;2022-11-30T15:39:19;30.87;;;18.90;;
38037;SDS011;23843;51.320;12.340;2022-11-30T15:41:46;25.83;;;15.70;;
38037;SDS011;23843;51.320;12.340;2022-11-30T15:44:24;24.10;;;14.87;;
38037;SDS011;23843;51.320;12.340;2022-11-30T15:47:02;25.03;;;15.73;;
38037;SDS011;23843;51.320;12.340;2022-11-30T15:49:29;26.33;;;16.00;;
38037;SDS011;23843;51.320;12.340;2022-11-30T15:52:01;36.27;;;21.40;;
38037;SDS011;23843;51.320;12.340;2022-11-30T15:54:42;33.83;;;20.87;;
38037;SDS011;23843;51.320;12.340;2022-11-30T15:57:12;32.40;;;20.03;;
38037;SDS011;23843;51.320;12.340;2022-11-30T15:59:38;31.73;;;19.83;;
38037;SDS011;23843;51.320;12.340;2022-11-30T16:02:03;32.93;;;19.83;;
38037;SDS011;23843;51.320;12.340;2022-11-30T16:04:42;26.60;;;16.97;;
38037;SDS011;23843;51.320;12.340;2022-11-30T16:07:32;28.40;;;18.30;;
38037;SDS011;23843;51.320;12.340;2022-11-30T16:10:01;28.93;;;17.63;;
38037;SDS011;23843;51.320;12.340;2022-11-30T16:12:27;29.50;;;18.13;;
38037;SDS011;23843;51.320;12.340;2022-11-30T16:14:54;27.73;;;16.80;;
38037;SDS011;23843;51.320;12.340;2022-11-30T16:17:19;29.23;;;17.37;;
38037;SDS011;23843;51.320;12.340;2022-11-30T16:19:44;25.70;;;15.97;;
38037;SDS011;23843;51.320;12.340;2022-11-30T16:22:10;27.20;;;16.93;;
38037;SDS011;23843;51.320;12.340;2022-11-30T16:24:38;24.13;;;15.43;;
38037;SDS011;23843;51.320;12.340;2022-11-30T16:27:05;29.37;;;18.40;;
38037;SDS011;23843;51.320;12.340;2022-11-30T16:29:38;28.70;;;18.10;;
38037;SDS011;23843;51.320;12.340;2022-11-30T16:32:04;23.50;;;15.20;;
38037;SDS011;23843;51.320;12.340;2022-11-30T16:34:29;29.30;;;17.10;;
38037;SDS011;23843;51.320;12.340;2022-11-30T16:36:58;23.37;;;14.57;;
38037;SDS011;23843;51.320;12.340;2022-11-30T16:39:23;28.00;;;16.60;;
38037;SDS011;23843;51.320;12.340;2022-11-30T16:41:50;27.23;;;16.03;;
38037;SDS011;23843;51.320;12.340;2022-11-30T16:44:15;28.50;;;18.13;;
38037;SDS011;23843;51.320;12.340;2022-11-30T16:46:41;30.57;;;19.50;;
38037;SDS011;23843;51.320;12.340;2022-11-30T16:49:06;26.03;;;16.20;;
38037;SDS011;23843;51.320;12.340;2022-11-30T16:51:32;31.67;;;18.90;;
38037;SDS011;23843;51.320;12.340;2022-11-30T16:53:57;28.17;;;17.33;;
38037;SDS011;23843;51.320;12.340;2022-11-30T16:56:23;32.00;;;19.87;;
38037;SDS011;23843;51.320;12.340;2022-11-30T16:58:50;26.37;;;16.70;;
38037;SDS011;23843;51.320;12.340;2022-11-30T17:01:17;28.30;;;17.13;;
38037;SDS011;23843;51.320;12.340;2022-11-30T17:03:45;33.23;;;18.60;;
38037;SDS011;23843;51.320;12.340;2022-11-30T17:06:15;28.93;;;17.33;;
38037;SDS011;23843;51.320;12.340;2022-11-30T17:08:42;24.37;;;15.63;;
38037;SDS011;23843;51.320;12.340;2022-11-30T17:11:08;23.97;;;14.47;;
38037;SDS011;23843;51.320;12.340;2022-11-30T17:13:41;26.67;;;15.20;;
38037;SDS011;23843;51.320;12.340;2022-11-30T17:16:09;25.87;;;16.70;;
38037;SDS011;23843;51.320;12.340;2022-11-30T17:18:35;26.03;;;16.87;;
38037;SDS011;23843;51.320;12.340;2022-11-30T17:21:00;28.70;;;16.90;;
38037;SDS011;23843;51.320;12.340;2022-11-30T17:23:29;29.77;;;18.53;;
38037;SDS011;23843;51.320;12.340;2022-11-30T17:25:54;28.73;;;18.60;;
38037;SDS011;23843;51.320;12.340;2022-11-30T17:28:23;27.43;;;16.27;;
38037;SDS011;23843;51.320;12.340;2022-11-30T17:30:48;39.20;;;23.13;;
38037;SDS011;23843;51.320;12.340;2022-11-30T17:33:15;29.57;;;17.13;;
38037;SDS011;23843;51.320;12.340;2022-11-30T17:35:42;27.23;;;16.27;;
38037;SDS011;23843;51.320;12.340;2022-11-30T17:38:10;34.57;;;20.60;;
38037;SDS011;23843;51.320;12.340;2022-11-30T17:40:37;30.20;;;17.77;;
38037;SDS011;23843;51.320;12.340;2022-11-30T17:43:03;34.57;;;20.77;;
38037;SDS011;23843;51.320;12.340;2022-11-30T17:45:29;34.13;;;21.60;;
38037;SDS011;23843;51.320;12.340;2022-11-30T17:47:54;33.77;;;19.87;;
38037;SDS011;23843;51.320;12.340;2022-11-30T17:50:21;36.13;;;21.30;;
38037;SDS011;23843;51.320;12.340;2022-11-30T17:52:46;30.57;;;18.27;;
38037;SDS011;23843;51.320;12.340;2022-11-30T17:55:12;36.07;;;21.97;;
38037;SDS011;23843;51.320;12.340;2022-11-30T17:57:37;29.70;;;18.17;;
38037;SDS011;23843;51.320;12.340;2022-11-30T18:00:03;36.40;;;20.97;;
38037;SDS011;23843;51.320;12.340;2022-11-30T18:02:30;34.73;;;20.17;;
38037;SDS011;23843;51.320;12.340;2022-11-30T18:04:55;31.03;;;19.07;;
38037;SDS011;23843;51.320;12.340;2022-11-30T18:07:22;37.97;;;21.83;;
38037;SDS011;23843;51.320;12.340;2022-11-30T18:09:48;40.80;;;24.23;;
38037;SDS011;23843;51.320;12.340;2022-11-30T18:12:13;33.97;;;20.37;;
38037;SDS011;23843;51.320;12.340;2022-11-30T18:14:38;37.03;;;21.63;;
38037;SDS011;23843;51.320;12.340;2022-11-30T18:17:04;35.03;;;20.23;;
38037;SDS011;23843;51.320;12.340;2022-11-30T18:19:29;35.93;;;20.80;;
38037;SDS011;23843;51.320;12.340;2022-11-30T18:21:55;34.37;;;20.50;;
38037;SDS011;23843;51.320;12.340;2022-11-30T18:24:22;35.47;;;21.37;;
38037;SDS011;23843;51.320;12.340;2022-11-30T18:26:48;28.40;;;17.07;;
38037;SDS011;23843;51.320;12.340;2022-11-30T18:29:13;32.90;;;18.83;;
38037;SDS011;23843;51.320;12.340;2022-11-30T18:31:39;28.60;;;16.77;;
38037;SDS011;23843;51.320;12.340;2022-11-30T18:34:05;34.33;;;19.70;;
38037;SDS011;23843;51.320;12.340;2022-11-30T18:36:31;33.80;;;20.20;;
38037;SDS011;23843;51.320;12.340;2022-11-30T18:38:57;41.33;;;23.67;;
38037;SDS011;23843;51.320;12.340;2022-11-30T18:41:24;39.53;;;22.93;;
38037;SDS011;23843;51.320;12.340;2022-11-30T18:43:50;40.20;;;21.83;;
38037;SDS011;23843;51.320;12.340;2022-11-30T18:46:16;47.83;;;27.77;;
38037;SDS011;23843;51.320;12.340;2022-11-30T18:48:41;41.73;;;24.13;;
38037;SDS011;23843;51.320;12.340;2022-11-30T18:51:08;44.67;;;25.17;;
38037;SDS011;23843;51.320;12.340;2022-11-30T18:53:35;54.43;;;31.73;;
38037;SDS011;23843;51.320;12.340;2022-11-30T18:56:05;55.20;;;31.80;;
38037;SDS011;23843;51.320;12.340;2022-11-30T18:58:33;54.57;;;29.77;;
38037;SDS011;23843;51.320;12.340;2022-11-30T19:01:04;49.30;;;27.27;;
38037;SDS011;23843;51.320;12.340;2022-11-30T19:03:30;46.63;;;26.87;;
38037;SDS011;23843;51.320;12.340;2022-11-30T19:05:55;53.97;;;28.80;;
38037;SDS011;23843;51.320;12.340;2022-11-30T19:08:21;46.53;;;26.77;;
38037;SDS011;23843;51.320;12.340;2022-11-30T19:10:46;53.50;;;28.43;;
38037;SDS011;23843;51.320;12.340;2022-11-30T19:13:12;47.03;;;25.63;;
38037;SDS011;23843;51.320;12.340;2022-11-30T19:15:39;40.00;;;22.33;;
38037;SDS011;23843;51.320;12.340;2022-11-30T19:18:05;35.63;;;20.00;;
38037;SDS011;23843;51.320;12.340;2022-11-30T19:20:35;40.90;;;23.70;;
38037;SDS011;23843;51.320;12.340;2022-11-30T19:23:02;37.77;;;22.10;;
38037;SDS011;23843;51.320;12.340;2022-11-30T19:25:27;51.20;;;26.13;;
38037;SDS011;23843;51.320;12.340;2022-11-30T19:27:53;53.77;;;29.93;;
38037;SDS011;23843;51.320;12.340;2022-11-30T19:30:19;48.30;;;26.07;;
38037;SDS011;23843;51.320;12.340;2022-11-30T19:32:46;49.67;;;26.77;;
38037;SDS011;23843;51.320;12.340;2022-11-30T19:35:11;52.27;;;28.50;;
38037;SDS011;23843;51.320;12.340;2022-11-30T19:37:36;40.67;;;23.30;;
38037;SDS011;23843;51.320;12.340;2022-11-30T19:40:02;49.40;;;26.73;;
38037;SDS011;23843;51.320;12.340;2022-11-30T19:42:28;51.50;;;28.47;;
38037;SDS011;23843;51.320;12.340;2022-11-30T19:44:53;49.37;;;27.00;;
38037;SDS011;23843;51.320;12.340;2022-11-30T19:47:19;41.67;;;23.07;;
38037;SDS011;23843;51.320;12.340;2022-11-30T19:49:46;44.60;;;24.90;;
38037;SDS011;23843;51.320;12.340;2022-11-30T19:52:11;44.00;;;24.50;;
38037;SDS011;23843;51.320;12.340;2022-11-30T19:54:37;43.03;;;25.57;;
38037;SDS011;23843;51.320;12.340;2022-11-30T19:57:02;53.77;;;29.13;;
38037;SDS011;23843;51.320;12.340;2022-11-30T19:59:28;50.07;;;28.43;;
38037;SDS011;23843;51.320;12.340;2022-11-30T20:01:53;49.33;;;28.03;;
38037;SDS011;23843;51.320;12.340;2022-11-30T20:04:18;42.13;;;23.13;;
38037;SDS011;23843;51.320;12.340;2022-11-30T20:06:45;51.07;;;28.70;;
38037;SDS011;23843;51.320;12.340;2022-11-30T20:09:11;48.33;;;26.93;;
38037;SDS011;23843;51.320;12.340;2022-11-30T20:11:36;43.63;;;23.43;;